Time;durP1;ratioP1;P1;durP2;ratioP2;P2;SDS_P1;SDS_P2;PMS_P1;PMS_P2;Temp;Humidity;BMP_temperature;BMP_pressure;BME280_temperature;BME280_humidity;BME280_pressure;Samples;Min_cycle;Max_cycle;Signal;HPM_P1;HPM_P2
2023/03/27 00:01:30;;;;;;;23.08;11.85;;;;;;;;;;5033844;28;20246;-59
2023/03/27 00:03:59;;;;;;;24.15;12.55;;;;;;;;;;5033974;28;20208;-60
2023/03/27 00:06:26;;;;;;;21.58;11.43;;;;;;;;;;5033508;28;20197;-59
2023/03/27 00:08:53;;;;;;;28.90;16.88;;;;;;;;;;5034035;28;21144;-60
2023/03/27 00:11:23;;;;;;;67.93;27.60;;;;;;;;;;5033802;28;20205;-59
2023/03/27 00:13:53;;;;;;;127.80;34.63;;;;;;;;;;5033610;28;20212;-59
2023/03/27 00:16:25;;;;;;;111.80;33.60;;;;;;;;;;5033450;28;20237;-59
2023/03/27 00:18:54;;;;;;;83.15;28.65;;;;;;;;;;5033423;28;20208;-59
2023/03/27 00:21:21;;;;;;;40.22;16.15;;;;;;;;;;5016132;28;20207;-60
2023/03/27 00:23:49;;;;;;;77.63;24.50;;;;;;;;;;5033688;28;20201;-59
2023/03/27 00:26:16;;;;;;;26.85;14.40;;;;;;;;;;5033374;28;20554;-60
2023/03/27 00:28:43;;;;;;;17.35;11.35;;;;;;;;;;5033402;28;20212;-60
2023/03/27 00:31:11;;;;;;;17.95;11.05;;;;;;;;;;5015925;28;20204;-59
2023/03/27 00:33:39;;;;;;;20.05;11.15;;;;;;;;;;5033388;28;20201;-59
2023/03/27 00:36:08;;;;;;;17.70;10.57;;;;;;;;;;5015644;28;20201;-59
2023/03/27 00:38:36;;;;;;;24.90;13.30;;;;;;;;;;5033131;28;20692;-60
2023/03/27 00:41:03;;;;;;;20.27;11.40;;;;;;;;;;5015816;28;20201;-59
2023/03/27 00:43:33;;;;;;;33.85;16.35;;;;;;;;;;5033189;28;20208;-60
2023/03/27 00:46:06;;;;;;;30.40;15.38;;;;;;;;;;5033060;28;20204;-60
2023/03/27 00:48:35;;;;;;;169.23;88.93;;;;;;;;;;5016134;28;20216;-59
2023/03/27 00:51:04;;;;;;;320.15;154.43;;;;;;;;;;5033406;28;20259;-60
2023/03/27 00:53:32;;;;;;;32.60;19.95;;;;;;;;;;5015697;28;20207;-59
2023/03/27 00:56:02;;;;;;;20.63;12.75;;;;;;;;;;5033173;28;20708;-59
2023/03/27 00:58:45;;;;;;;19.50;11.23;;;;;;;;;;5033176;28;20582;-59
2023/03/27 01:01:14;;;;;;;19.98;11.20;;;;;;;;;;5016209;28;20197;-60
2023/03/27 01:03:45;;;;;;;20.50;11.18;;;;;;;;;;5033202;28;20211;-59
2023/03/27 01:06:15;;;;;;;31.50;13.35;;;;;;;;;;5016030;28;20240;-60
2023/03/27 01:08:44;;;;;;;21.37;12.20;;;;;;;;;;5019434;28;20196;-59
2023/03/27 01:11:15;;;;;;;19.23;11.45;;;;;;;;;;5019265;28;20201;-59
2023/03/27 01:13:49;;;;;;;20.90;13.38;;;;;;;;;;5037056;28;20205;-59
2023/03/27 01:16:47;;;;;;;20.13;12.30;;;;;;;;;;5019494;28;20241;-60
2023/03/27 01:19:40;;;;;;;22.15;11.63;;;;;;;;;;5036711;28;20692;-60
2023/03/27 01:22:29;;;;;;;20.00;11.90;;;;;;;;;;5019706;28;20185;-59
2023/03/27 01:25:26;;;;;;;19.40;11.10;;;;;;;;;;5019322;28;20200;-59
2023/03/27 01:28:21;;;;;;;19.73;11.67;;;;;;;;;;5018911;28;20224;-60
2023/03/27 01:31:00;;;;;;;20.02;12.30;;;;;;;;;;5019180;28;20202;-59
2023/03/27 01:33:46;;;;;;;18.73;11.13;;;;;;;;;;5003042;28;20283;-59
2023/03/27 01:36:19;;;;;;;23.77;13.30;;;;;;;;;;5018866;28;20200;-59
2023/03/27 01:39:09;;;;;;;27.90;14.80;;;;;;;;;;5018916;28;20311;-60
2023/03/27 01:41:59;;;;;;;24.77;13.30;;;;;;;;;;5002818;28;20216;-59
2023/03/27 01:44:35;;;;;;;23.30;12.55;;;;;;;;;;5035146;28;20212;-59
2023/03/27 01:47:33;;;;;;;24.15;14.13;;;;;;;;;;5018841;28;20209;-59
2023/03/27 01:50:08;;;;;;;33.13;15.77;;;;;;;;;;5036659;28;20224;-59
2023/03/27 01:52:39;;;;;;;35.70;21.30;;;;;;;;;;5018997;28;20208;-59
2023/03/27 01:55:10;;;;;;;63.40;36.72;;;;;;;;;;5018699;28;20216;-59
2023/03/27 01:57:48;;;;;;;39.85;22.00;;;;;;;;;;5002747;28;20278;-60
2023/03/27 02:00:21;;;;;;;30.92;17.27;;;;;;;;;;5018468;28;20228;-60
2023/03/27 02:02:51;;;;;;;33.38;16.58;;;;;;;;;;5018712;28;20216;-60
2023/03/27 02:05:25;;;;;;;32.30;16.10;;;;;;;;;;5018211;28;20205;-60
2023/03/27 02:07:58;;;;;;;31.48;14.68;;;;;;;;;;5036090;28;20200;-59
2023/03/27 02:10:31;;;;;;;38.28;17.77;;;;;;;;;;5034751;28;20207;-58
2023/03/27 02:13:07;;;;;;;38.85;18.58;;;;;;;;;;5019313;28;20200;-59
2023/03/27 02:15:40;;;;;;;34.72;19.25;;;;;;;;;;5018199;28;20236;-59
2023/03/27 02:18:11;;;;;;;29.15;15.23;;;;;;;;;;5000961;28;20232;-60
2023/03/27 02:20:40;;;;;;;23.50;14.25;;;;;;;;;;5018245;28;20287;-59
2023/03/27 02:23:07;;;;;;;35.70;16.30;;;;;;;;;;5034292;28;20212;-60
2023/03/27 02:25:37;;;;;;;21.40;13.57;;;;;;;;;;5018156;28;20201;-59
2023/03/27 02:28:14;;;;;;;27.00;15.23;;;;;;;;;;5018226;28;20197;-59
2023/03/27 02:31:00;;;;;;;24.13;14.80;;;;;;;;;;5035701;28;20216;-59
2023/03/27 02:34:37;;;;;;;32.47;16.30;;;;;;;;;;5017848;28;20567;-59
2023/03/27 02:37:28;;;;;;;38.45;19.88;;;;;;;;;;4958227;28;20215;-59
2023/03/27 02:40:23;;;;;;;45.70;18.90;;;;;;;;;;4962426;28;20210;-59
2023/03/27 02:43:07;;;;;;;27.92;15.15;;;;;;;;;;4974359;28;20203;-59
2023/03/27 02:45:58;;;;;;;26.65;14.85;;;;;;;;;;4974384;28;20198;-59
2023/03/27 02:48:45;;;;;;;28.13;15.30;;;;;;;;;;4974008;28;20802;-59
2023/03/27 02:51:52;;;;;;;24.53;15.30;;;;;;;;;;4958370;28;20216;-59
2023/03/27 02:54:26;;;;;;;24.15;15.40;;;;;;;;;;4935528;29;20203;-59
2023/03/27 02:56:56;;;;;;;25.25;15.10;;;;;;;;;;4951445;29;20199;-60
2023/03/27 02:59:34;;;;;;;26.10;14.83;;;;;;;;;;4919726;29;20215;-59
2023/03/27 03:02:09;;;;;;;24.13;14.17;;;;;;;;;;4935826;29;20562;-59
2023/03/27 03:05:08;;;;;;;23.15;14.80;;;;;;;;;;4933930;29;20712;-59
2023/03/27 03:07:39;;;;;;;23.13;15.10;;;;;;;;;;4950998;29;20204;-59
2023/03/27 03:10:07;;;;;;;39.80;17.37;;;;;;;;;;4935011;29;20207;-60
2023/03/27 03:12:36;;;;;;;28.50;15.65;;;;;;;;;;4937180;29;20219;-59
2023/03/27 03:15:06;;;;;;;34.30;17.97;;;;;;;;;;4954265;29;20586;-59
2023/03/27 03:17:34;;;;;;;28.90;16.67;;;;;;;;;;4954285;29;20232;-58
2023/03/27 03:20:02;;;;;;;27.37;15.70;;;;;;;;;;4954371;29;20207;-59
2023/03/27 03:22:30;;;;;;;28.33;15.47;;;;;;;;;;4954190;29;20204;-59
2023/03/27 03:24:57;;;;;;;26.70;16.63;;;;;;;;;;4989926;28;20259;-59
2023/03/27 03:27:28;;;;;;;26.00;16.13;;;;;;;;;;5016661;28;20209;-59
2023/03/27 03:30:08;;;;;;;26.73;15.53;;;;;;;;;;5033022;28;20224;-59
2023/03/27 03:32:46;;;;;;;22.33;14.37;;;;;;;;;;5015856;28;20717;-59
2023/03/27 03:35:15;;;;;;;24.20;14.90;;;;;;;;;;5007858;28;20209;-60
2023/03/27 03:37:49;;;;;;;25.40;14.93;;;;;;;;;;5013380;28;20303;-60
2023/03/27 03:40:19;;;;;;;23.60;13.50;;;;;;;;;;5029573;28;20201;-59
2023/03/27 03:42:50;;;;;;;27.93;15.67;;;;;;;;;;5016476;28;20208;-59
2023/03/27 03:45:21;;;;;;;26.27;15.63;;;;;;;;;;5016355;28;20292;-60
2023/03/27 03:47:49;;;;;;;39.47;21.27;;;;;;;;;;5033392;28;20235;-59
2023/03/27 03:50:16;;;;;;;115.10;38.63;;;;;;;;;;5029404;28;20243;-59
2023/03/27 03:52:44;;;;;;;98.53;34.43;;;;;;;;;;5014381;28;20285;-59
2023/03/27 03:55:12;;;;;;;30.67;16.10;;;;;;;;;;5048457;28;20673;-58
2023/03/27 03:57:43;;;;;;;26.80;16.00;;;;;;;;;;5032532;28;20220;-59
2023/03/27 04:00:16;;;;;;;21.97;14.07;;;;;;;;;;5015703;28;20216;-58
2023/03/27 04:02:44;;;;;;;26.20;15.87;;;;;;;;;;5031722;28;20200;-57
2023/03/27 04:05:14;;;;;;;24.37;15.20;;;;;;;;;;4988729;28;20239;-58
2023/03/27 04:07:41;;;;;;;26.93;16.07;;;;;;;;;;5030921;28;20232;-59
2023/03/27 04:10:19;;;;;;;31.20;16.30;;;;;;;;;;5009066;28;20671;-58
2023/03/27 04:12:48;;;;;;;24.87;13.70;;;;;;;;;;5039828;28;20236;-59
2023/03/27 04:15:42;;;;;;;25.57;15.13;;;;;;;;;;5016020;28;20255;-58
2023/03/27 04:18:20;;;;;;;27.93;15.53;;;;;;;;;;5015001;28;20240;-58
2023/03/27 04:20:53;;;;;;;24.03;15.27;;;;;;;;;;5047320;28;20228;-58
2023/03/27 04:23:29;;;;;;;21.50;12.77;;;;;;;;;;5048286;28;20228;-58
2023/03/27 04:26:01;;;;;;;27.23;15.63;;;;;;;;;;5047538;28;20248;-58
2023/03/27 04:28:55;;;;;;;23.37;13.90;;;;;;;;;;5028313;28;20293;-58
2023/03/27 04:31:45;;;;;;;25.57;14.73;;;;;;;;;;4991836;28;20235;-58
2023/03/27 04:34:33;;;;;;;25.73;15.00;;;;;;;;;;5010785;28;20217;-59
2023/03/27 04:37:13;;;;;;;23.13;13.93;;;;;;;;;;5014616;28;20228;-58
2023/03/27 04:39:53;;;;;;;24.83;15.13;;;;;;;;;;5047547;28;20224;-57
2023/03/27 04:42:22;;;;;;;26.00;16.97;;;;;;;;;;5016569;28;20303;-58
2023/03/27 04:44:51;;;;;;;24.33;16.70;;;;;;;;;;5051424;28;20228;-55
2023/03/27 04:47:19;;;;;;;27.40;16.87;;;;;;;;;;5035645;28;20271;-58
2023/03/27 04:49:51;;;;;;;27.90;16.80;;;;;;;;;;5034690;28;20233;-57
2023/03/27 04:52:28;;;;;;;26.67;16.10;;;;;;;;;;5016135;28;20214;-58
2023/03/27 04:54:57;;;;;;;27.67;16.33;;;;;;;;;;5013724;28;20217;-57
2023/03/27 04:57:30;;;;;;;29.20;18.50;;;;;;;;;;5033189;28;20303;-58
2023/03/27 05:00:01;;;;;;;29.30;16.70;;;;;;;;;;5014455;28;20708;-57
2023/03/27 05:02:52;;;;;;;26.73;16.83;;;;;;;;;;5032854;28;20235;-57
2023/03/27 05:05:29;;;;;;;28.17;17.20;;;;;;;;;;5032917;28;20224;-58
2023/03/27 05:07:57;;;;;;;31.63;17.63;;;;;;;;;;5033881;28;20314;-58
2023/03/27 05:10:26;;;;;;;26.40;16.02;;;;;;;;;;5016794;28;20220;-55
2023/03/27 05:12:53;;;;;;;27.03;15.27;;;;;;;;;;5012571;28;20313;-59
2023/03/27 05:15:24;;;;;;;26.27;16.38;;;;;;;;;;5051251;28;20728;-58
2023/03/27 05:17:53;;;;;;;25.45;15.90;;;;;;;;;;5019168;28;20204;-58
2023/03/27 05:20:24;;;;;;;25.67;16.33;;;;;;;;;;5035206;28;20204;-58
2023/03/27 05:22:53;;;;;;;24.40;15.52;;;;;;;;;;5036381;28;20543;-58
2023/03/27 05:25:31;;;;;;;23.50;14.95;;;;;;;;;;5018966;28;20196;-58
2023/03/27 05:28:02;;;;;;;26.23;16.43;;;;;;;;;;5051796;28;20665;-58
2023/03/27 05:30:32;;;;;;;30.20;16.63;;;;;;;;;;5019179;28;20259;-58
2023/03/27 05:33:28;;;;;;;28.23;16.20;;;;;;;;;;5024054;28;20216;-57
2023/03/27 05:35:56;;;;;;;26.27;17.08;;;;;;;;;;5018827;28;20212;-58
2023/03/27 05:38:25;;;;;;;35.73;17.90;;;;;;;;;;5051955;28;20259;-58
2023/03/27 05:41:11;;;;;;;29.63;17.02;;;;;;;;;;5019072;28;20193;-58
2023/03/27 05:43:45;;;;;;;25.30;17.38;;;;;;;;;;5051917;28;20227;-58
2023/03/27 05:46:14;;;;;;;27.23;17.02;;;;;;;;;;5018621;28;20727;-58
2023/03/27 05:49:00;;;;;;;53.22;24.40;;;;;;;;;;5052099;28;20263;-58
2023/03/27 05:51:28;;;;;;;63.28;35.85;;;;;;;;;;5018492;28;20208;-58
2023/03/27 05:53:55;;;;;;;53.40;28.88;;;;;;;;;;5018442;28;20204;-58
2023/03/27 05:56:32;;;;;;;81.28;35.17;;;;;;;;;;5034856;28;20215;-57
2023/03/27 05:59:02;;;;;;;280.10;67.38;;;;;;;;;;5035032;28;20582;-58
2023/03/27 06:01:34;;;;;;;271.42;66.40;;;;;;;;;;5018469;28;20199;-58
2023/03/27 06:04:03;;;;;;;159.63;47.33;;;;;;;;;;5035947;28;20263;-58
2023/03/27 06:06:49;;;;;;;145.90;42.37;;;;;;;;;;5035839;28;20211;-58
2023/03/27 06:09:16;;;;;;;71.05;27.58;;;;;;;;;;5018332;28;20208;-58
2023/03/27 06:12:00;;;;;;;28.60;17.93;;;;;;;;;;5018428;28;20259;-58
2023/03/27 06:14:32;;;;;;;27.73;18.93;;;;;;;;;;5017916;28;20250;-58
2023/03/27 06:17:14;;;;;;;28.90;18.25;;;;;;;;;;5018285;28;20659;-57
2023/03/27 06:19:48;;;;;;;28.27;17.38;;;;;;;;;;5051242;28;20215;-58
2023/03/27 06:22:15;;;;;;;26.10;16.58;;;;;;;;;;5034674;28;20284;-58
2023/03/27 06:24:44;;;;;;;29.00;17.98;;;;;;;;;;5018010;28;20564;-58
2023/03/27 06:27:17;;;;;;;30.77;17.85;;;;;;;;;;5051116;28;20227;-58
2023/03/27 06:29:46;;;;;;;26.10;17.13;;;;;;;;;;5018014;28;20239;-58
2023/03/27 06:32:15;;;;;;;27.27;16.23;;;;;;;;;;5051065;28;20220;-58
2023/03/27 06:34:49;;;;;;;25.80;15.10;;;;;;;;;;5017971;28;20254;-58
2023/03/27 06:37:40;;;;;;;26.05;15.48;;;;;;;;;;5036086;28;20212;-58
2023/03/27 06:40:09;;;;;;;24.85;15.65;;;;;;;;;;5050511;28;20250;-59
2023/03/27 06:42:37;;;;;;;28.00;15.48;;;;;;;;;;5017572;28;20208;-58
2023/03/27 06:45:24;;;;;;;22.80;15.35;;;;;;;;;;5017871;28;20193;-58
2023/03/27 06:48:12;;;;;;;26.00;16.00;;;;;;;;;;5034984;28;20247;-58
2023/03/27 06:50:50;;;;;;;23.65;14.70;;;;;;;;;;5050479;28;20224;-59
2023/03/27 06:53:19;;;;;;;24.02;14.30;;;;;;;;;;5035542;28;20200;-59
2023/03/27 06:55:50;;;;;;;22.85;14.40;;;;;;;;;;5050554;28;20212;-59
2023/03/27 06:58:17;;;;;;;21.65;14.48;;;;;;;;;;5017263;28;20673;-59
2023/03/27 07:00:47;;;;;;;21.00;13.13;;;;;;;;;;5017333;28;20565;-59
2023/03/27 07:03:20;;;;;;;25.38;14.93;;;;;;;;;;5034816;28;20751;-58
2023/03/27 07:06:07;;;;;;;22.10;14.45;;;;;;;;;;5033644;28;20739;-59
2023/03/27 07:09:01;;;;;;;22.42;15.05;;;;;;;;;;5031676;28;20610;-58
2023/03/27 07:11:29;;;;;;;23.55;14.43;;;;;;;;;;5016893;28;20224;-58
2023/03/27 07:14:02;;;;;;;24.00;15.77;;;;;;;;;;5033791;28;20212;-59
2023/03/27 07:16:30;;;;;;;25.17;14.93;;;;;;;;;;5016941;28;20278;-57
2023/03/27 07:19:00;;;;;;;22.02;15.13;;;;;;;;;;5034645;28;20583;-58
2023/03/27 07:21:30;;;;;;;26.50;15.25;;;;;;;;;;5033496;28;20647;-57
2023/03/27 07:23:59;;;;;;;26.00;14.73;;;;;;;;;;5017174;28;20196;-57
2023/03/27 07:26:32;;;;;;;24.02;15.90;;;;;;;;;;5017172;28;20205;-57
2023/03/27 07:29:01;;;;;;;23.77;15.43;;;;;;;;;;5016989;28;20205;-58
2023/03/27 07:31:29;;;;;;;23.55;15.50;;;;;;;;;;5016502;28;20205;-58
2023/03/27 07:34:18;;;;;;;24.33;15.82;;;;;;;;;;5034370;28;20215;-58
2023/03/27 07:37:22;;;;;;;23.63;16.25;;;;;;;;;;4973275;28;20562;-59
2023/03/27 07:40:12;;;;;;;24.65;16.88;;;;;;;;;;5029968;28;20270;-58
2023/03/27 07:42:44;;;;;;;25.00;15.32;;;;;;;;;;5033010;28;20208;-58
2023/03/27 07:45:19;;;;;;;23.88;15.60;;;;;;;;;;5033093;28;20208;-58
2023/03/27 07:47:48;;;;;;;25.75;16.83;;;;;;;;;;5032897;28;20276;-58
2023/03/27 07:50:18;;;;;;;24.38;17.00;;;;;;;;;;5016761;28;20216;-58
2023/03/27 07:52:46;;;;;;;27.73;16.77;;;;;;;;;;5016327;28;20578;-58
2023/03/27 07:55:21;;;;;;;24.83;17.40;;;;;;;;;;5016278;28;20255;-58
2023/03/27 07:58:01;;;;;;;29.48;17.05;;;;;;;;;;5016305;28;20683;-58
2023/03/27 08:00:34;;;;;;;31.65;18.40;;;;;;;;;;5016581;28;20217;-57
2023/03/27 08:03:12;;;;;;;30.35;17.73;;;;;;;;;;5016139;28;20227;-58
2023/03/27 08:05:55;;;;;;;26.73;17.10;;;;;;;;;;5016058;28;20204;-58
2023/03/27 08:08:24;;;;;;;27.58;17.92;;;;;;;;;;5016067;28;20279;-58
2023/03/27 08:10:58;;;;;;;29.60;17.85;;;;;;;;;;5016534;28;20247;-58
2023/03/27 08:13:29;;;;;;;23.92;17.23;;;;;;;;;;5016171;28;20540;-58
2023/03/27 08:16:04;;;;;;;27.65;17.80;;;;;;;;;;5015938;28;20312;-58
2023/03/27 08:18:31;;;;;;;26.95;18.25;;;;;;;;;;5033870;28;20205;-57
2023/03/27 08:21:04;;;;;;;28.92;17.85;;;;;;;;;;5015922;28;20219;-58
2023/03/27 08:23:33;;;;;;;28.85;18.02;;;;;;;;;;5032278;28;20684;-58
2023/03/27 08:26:19;;;;;;;30.52;18.55;;;;;;;;;;5033109;28;20189;-58
2023/03/27 08:28:55;;;;;;;25.85;17.38;;;;;;;;;;5015951;28;20212;-58
2023/03/27 08:31:26;;;;;;;26.77;17.25;;;;;;;;;;5016173;28;20189;-58
2023/03/27 08:33:58;;;;;;;26.15;18.27;;;;;;;;;;5015615;28;20783;-58
2023/03/27 08:36:30;;;;;;;27.05;17.65;;;;;;;;;;5032361;28;20207;-59
2023/03/27 08:39:01;;;;;;;30.08;18.17;;;;;;;;;;5015879;28;20294;-58
2023/03/27 08:41:41;;;;;;;25.20;17.48;;;;;;;;;;5016028;28;20211;-58
2023/03/27 08:44:17;;;;;;;27.48;18.02;;;;;;;;;;5001010;28;20222;-58
2023/03/27 08:46:56;;;;;;;31.08;20.15;;;;;;;;;;5015724;28;20610;-58
2023/03/27 08:49:30;;;;;;;27.42;18.73;;;;;;;;;;5015656;28;20274;-58
2023/03/27 08:52:21;;;;;;;31.27;19.27;;;;;;;;;;5018469;28;20189;-59
2023/03/27 08:54:57;;;;;;;30.08;19.20;;;;;;;;;;4999681;28;20219;-58
2023/03/27 08:57:33;;;;;;;28.15;18.23;;;;;;;;;;5015739;28;20201;-59
2023/03/27 09:00:30;;;;;;;25.33;17.08;;;;;;;;;;5017905;28;20697;-59
2023/03/27 09:03:34;;;;;;;23.25;16.48;;;;;;;;;;5001097;28;20255;-59
2023/03/27 09:06:10;;;;;;;25.77;16.85;;;;;;;;;;5008920;28;20212;-58
2023/03/27 09:09:08;;;;;;;28.35;18.17;;;;;;;;;;5000320;28;20204;-58
2023/03/27 09:11:50;;;;;;;26.63;17.67;;;;;;;;;;4999237;28;20200;-59
2023/03/27 09:14:33;;;;;;;27.45;18.63;;;;;;;;;;5000124;28;20201;-59
2023/03/27 09:17:08;;;;;;;26.25;17.83;;;;;;;;;;5015949;28;20283;-58
2023/03/27 09:19:59;;;;;;;27.73;17.55;;;;;;;;;;5015307;28;20235;-58
2023/03/27 09:22:35;;;;;;;24.65;18.10;;;;;;;;;;4999888;28;20247;-59
2023/03/27 09:25:44;;;;;;;25.35;17.45;;;;;;;;;;5009605;28;20211;-59
2023/03/27 09:28:52;;;;;;;25.77;17.40;;;;;;;;;;5003225;28;20211;-58
2023/03/27 09:31:28;;;;;;;26.48;16.70;;;;;;;;;;5019266;28;20200;-59
2023/03/27 09:34:00;;;;;;;26.85;17.45;;;;;;;;;;5019567;28;20192;-59
2023/03/27 09:36:27;;;;;;;24.48;16.63;;;;;;;;;;5003261;28;20195;-59
2023/03/27 09:39:04;;;;;;;26.15;16.52;;;;;;;;;;5018685;28;20201;-59
2023/03/27 09:41:50;;;;;;;22.55;15.23;;;;;;;;;;5018908;28;20668;-58
2023/03/27 09:44:24;;;;;;;23.27;14.75;;;;;;;;;;5018904;28;20189;-59
2023/03/27 09:47:03;;;;;;;24.15;15.70;;;;;;;;;;5003547;28;20243;-58
2023/03/27 09:49:30;;;;;;;25.20;15.57;;;;;;;;;;5002965;28;20539;-59
2023/03/27 09:52:00;;;;;;;21.63;14.57;;;;;;;;;;5002315;28;20216;-59
2023/03/27 09:54:49;;;;;;;21.67;13.63;;;;;;;;;;5036100;28;20279;-58
2023/03/27 09:57:17;;;;;;;22.27;15.40;;;;;;;;;;5018541;28;20204;-59
2023/03/27 10:00:13;;;;;;;18.92;14.23;;;;;;;;;;5018430;28;20231;-58
2023/03/27 10:03:15;;;;;;;22.70;14.50;;;;;;;;;;5018357;28;20200;-59
2023/03/27 10:05:46;;;;;;;17.38;12.55;;;;;;;;;;5018689;28;20251;-59
2023/03/27 10:08:23;;;;;;;16.92;12.02;;;;;;;;;;5019030;28;20201;-59
2023/03/27 10:11:19;;;;;;;17.63;12.60;;;;;;;;;;5035859;28;20661;-59
2023/03/27 10:13:54;;;;;;;15.10;11.18;;;;;;;;;;5018452;28;20200;-59
2023/03/27 10:16:24;;;;;;;15.68;10.32;;;;;;;;;;5002504;28;20233;-59
2023/03/27 10:19:02;;;;;;;14.63;9.77;;;;;;;;;;5020066;28;20642;-59
2023/03/27 10:21:43;;;;;;;13.20;9.00;;;;;;;;;;5019500;28;20209;-58
2023/03/27 10:24:30;;;;;;;15.40;10.98;;;;;;;;;;5019540;28;20654;-58
2023/03/27 10:27:10;;;;;;;15.13;10.48;;;;;;;;;;5035214;28;20246;-59
2023/03/27 10:29:49;;;;;;;13.55;10.63;;;;;;;;;;5034306;28;20657;-59
2023/03/27 10:32:16;;;;;;;16.58;11.50;;;;;;;;;;5032633;28;20293;-57
2023/03/27 10:35:04;;;;;;;15.80;11.57;;;;;;;;;;5017266;28;20200;-58
2023/03/27 10:37:39;;;;;;;15.93;11.43;;;;;;;;;;5035834;28;20204;-58
2023/03/27 10:40:33;;;;;;;17.08;10.98;;;;;;;;;;5025940;28;20232;-59
2023/03/27 10:43:12;;;;;;;19.50;12.20;;;;;;;;;;5035295;28;20207;-59
2023/03/27 10:45:52;;;;;;;14.32;10.32;;;;;;;;;;5001637;28;20201;-58
2023/03/27 10:48:50;;;;;;;12.57;9.75;;;;;;;;;;5017449;28;20209;-58
2023/03/27 10:51:50;;;;;;;25.92;16.27;;;;;;;;;;4978050;28;20572;-58
2023/03/27 10:54:39;;;;;;;17.15;11.13;;;;;;;;;;5033685;28;20224;-58
2023/03/27 10:57:22;;;;;;;14.57;10.25;;;;;;;;;;5017834;28;20204;-59
2023/03/27 11:00:21;;;;;;;16.27;11.07;;;;;;;;;;5001493;28;20225;-59
2023/03/27 11:03:08;;;;;;;15.57;10.80;;;;;;;;;;5003816;28;20215;-59
2023/03/27 11:05:44;;;;;;;17.25;10.07;;;;;;;;;;5001436;28;20287;-58
2023/03/27 11:08:47;;;;;;;19.35;10.95;;;;;;;;;;5002670;28;20204;-59
2023/03/27 11:11:25;;;;;;;8.07;4.53;;;;;;;;;;5017246;28;20282;-59
2023/03/27 11:14:01;;;;;;;8.85;4.00;;;;;;;;;;5034652;28;20196;-59
2023/03/27 11:16:41;;;;;;;8.60;3.53;;;;;;;;;;5017612;28;20258;-59
2023/03/27 11:19:55;;;;;;;5.70;4.10;;;;;;;;;;5034341;28;20216;-59
2023/03/27 11:22:47;;;;;;;6.63;3.28;;;;;;;;;;5020025;28;20201;-58
2023/03/27 11:25:42;;;;;;;7.18;3.50;;;;;;;;;;5030796;28;20205;-59
2023/03/27 11:28:40;;;;;;;5.60;3.15;;;;;;;;;;5032457;28;20193;-59
2023/03/27 11:31:24;;;;;;;7.78;3.25;;;;;;;;;;4992861;28;20205;-59
2023/03/27 11:33:55;;;;;;;7.60;3.30;;;;;;;;;;4997190;28;20206;-58
2023/03/27 11:36:50;;;;;;;5.05;3.22;;;;;;;;;;5013267;28;20205;-59
2023/03/27 11:39:41;;;;;;;6.22;2.88;;;;;;;;;;4997177;28;20259;-59
2023/03/27 11:42:18;;;;;;;6.03;3.58;;;;;;;;;;4997187;28;20228;-59
2023/03/27 11:44:47;;;;;;;6.50;4.10;;;;;;;;;;5013051;28;20205;-58
2023/03/27 11:47:32;;;;;;;6.53;3.75;;;;;;;;;;5015196;28;20212;-59
2023/03/27 11:50:39;;;;;;;6.30;4.40;;;;;;;;;;5013260;28;20200;-59
2023/03/27 11:53:37;;;;;;;5.55;3.63;;;;;;;;;;4980044;28;20212;-58
2023/03/27 11:56:36;;;;;;;6.65;3.72;;;;;;;;;;5030974;28;20200;-57
2023/03/27 11:59:47;;;;;;;6.05;3.53;;;;;;;;;;5045751;28;20192;-57
2023/03/27 12:02:17;;;;;;;6.53;2.80;;;;;;;;;;5030547;28;20232;-57
2023/03/27 12:05:24;;;;;;;9.38;3.60;;;;;;;;;;5015090;28;20219;-56
2023/03/27 12:08:03;;;;;;;3.92;2.97;;;;;;;;;;5012772;28;20207;-57
2023/03/27 12:10:33;;;;;;;5.53;3.10;;;;;;;;;;5014350;28;20657;-57
2023/03/27 12:13:43;;;;;;;5.85;2.97;;;;;;;;;;5014844;28;20216;-57
2023/03/27 12:16:31;;;;;;;3.97;2.65;;;;;;;;;;5014538;28;20228;-56
2023/03/27 12:19:12;;;;;;;5.82;3.00;;;;;;;;;;5013657;28;20200;-57
2023/03/27 12:22:39;;;;;;;3.80;2.47;;;;;;;;;;5044892;28;20193;-57
2023/03/27 12:25:25;;;;;;;4.35;2.55;;;;;;;;;;5002616;28;20288;-57
2023/03/27 12:28:22;;;;;;;4.15;2.42;;;;;;;;;;5031873;28;20188;-58
2023/03/27 12:31:45;;;;;;;6.40;4.00;;;;;;;;;;5047364;28;20210;-55
2023/03/27 12:34:21;;;;;;;6.47;3.50;;;;;;;;;;4988437;28;20207;-57
2023/03/27 12:36:51;;;;;;;6.50;3.45;;;;;;;;;;5010917;28;20211;-57
2023/03/27 12:39:23;;;;;;;5.07;3.08;;;;;;;;;;5004261;28;20196;-56
2023/03/27 12:41:52;;;;;;;5.47;3.65;;;;;;;;;;5028682;28;20243;-57
2023/03/27 12:44:29;;;;;;;8.85;3.38;;;;;;;;;;5011399;28;20233;-57
2023/03/27 12:47:23;;;;;;;7.30;3.78;;;;;;;;;;5012655;28;20315;-56
2023/03/27 12:50:19;;;;;;;5.93;4.05;;;;;;;;;;5023684;28;20709;-57
2023/03/27 12:52:51;;;;;;;8.57;4.13;;;;;;;;;;5010545;28;20239;-57
2023/03/27 12:55:30;;;;;;;10.23;5.30;;;;;;;;;;5011851;28;20240;-57
2023/03/27 12:57:59;;;;;;;7.63;3.95;;;;;;;;;;5030379;28;20220;-56
2023/03/27 13:00:58;;;;;;;8.18;4.53;;;;;;;;;;5028413;28;20239;-56
2023/03/27 13:03:41;;;;;;;10.38;4.35;;;;;;;;;;5014170;28;20308;-57
2023/03/27 13:06:19;;;;;;;10.57;4.47;;;;;;;;;;5031781;28;20734;-59
2023/03/27 13:09:07;;;;;;;9.02;5.20;;;;;;;;;;5032845;28;20259;-58
2023/03/27 13:12:13;;;;;;;11.35;4.95;;;;;;;;;;5016959;28;20721;-60
2023/03/27 13:15:01;;;;;;;9.77;5.25;;;;;;;;;;5032342;28;20264;-57
2023/03/27 13:17:45;;;;;;;8.50;4.70;;;;;;;;;;5048761;28;20216;-58
2023/03/27 13:20:15;;;;;;;11.88;5.10;;;;;;;;;;5031942;28;20315;-58
2023/03/27 13:22:51;;;;;;;11.18;4.32;;;;;;;;;;5017163;28;20700;-58
2023/03/27 13:25:31;;;;;;;8.85;4.10;;;;;;;;;;5015545;28;20216;-54
2023/03/27 13:28:12;;;;;;;8.43;4.10;;;;;;;;;;5016469;28;20723;-57
2023/03/27 13:30:54;;;;;;;9.77;4.57;;;;;;;;;;5016748;28;20229;-57
2023/03/27 13:33:46;;;;;;;9.35;3.83;;;;;;;;;;5019669;28;20224;-59
2023/03/27 13:36:28;;;;;;;9.23;4.10;;;;;;;;;;5030742;28;20223;-58
2023/03/27 13:38:58;;;;;;;10.30;3.83;;;;;;;;;;5016240;28;20225;-58
2023/03/27 13:41:42;;;;;;;10.20;4.63;;;;;;;;;;5015064;28;20235;-57
2023/03/27 13:44:27;;;;;;;7.88;3.47;;;;;;;;;;5031399;28;20235;-57
2023/03/27 13:47:22;;;;;;;11.48;3.80;;;;;;;;;;5016413;28;20819;-57
2023/03/27 13:50:28;;;;;;;9.20;4.00;;;;;;;;;;5016105;28;20228;-58
2023/03/27 13:53:11;;;;;;;8.68;3.60;;;;;;;;;;4977199;28;20224;-57
2023/03/27 13:56:20;;;;;;;8.07;3.55;;;;;;;;;;5032190;28;20232;-59
2023/03/27 13:59:26;;;;;;;10.35;3.80;;;;;;;;;;5014543;28;20216;-57
2023/03/27 14:02:01;;;;;;;8.75;3.28;;;;;;;;;;5031719;28;20239;-57
2023/03/27 14:04:52;;;;;;;11.30;4.07;;;;;;;;;;5015715;28;20217;-60
2023/03/27 14:07:51;;;;;;;9.98;3.35;;;;;;;;;;5031944;28;20224;-59
2023/03/27 14:10:45;;;;;;;10.60;3.65;;;;;;;;;;5031663;28;20270;-60
2023/03/27 14:13:18;;;;;;;7.95;3.53;;;;;;;;;;5031329;28;20216;-58
2023/03/27 14:15:53;;;;;;;15.90;3.45;;;;;;;;;;5047845;28;20641;-59
2023/03/27 14:19:05;;;;;;;7.57;3.30;;;;;;;;;;5014112;28;20227;-57
2023/03/27 14:21:48;;;;;;;7.40;3.45;;;;;;;;;;5048532;28;20311;-58
2023/03/27 14:24:26;;;;;;;8.77;3.72;;;;;;;;;;5029837;28;20639;-57
2023/03/27 14:27:05;;;;;;;8.73;3.70;;;;;;;;;;5013058;28;20228;-56
2023/03/27 14:29:36;;;;;;;11.50;3.57;;;;;;;;;;5000258;28;20233;-58
2023/03/27 14:32:05;;;;;;;8.07;3.65;;;;;;;;;;5032063;28;20229;-58
2023/03/27 14:34:35;;;;;;;7.93;3.33;;;;;;;;;;5015905;28;20270;-59
2023/03/27 14:38:02;;;;;;;7.28;3.40;;;;;;;;;;4970035;28;20699;-59
2023/03/27 14:40:41;;;;;;;10.83;3.27;;;;;;;;;;4970770;28;20234;-58
2023/03/27 14:43:11;;;;;;;8.18;3.28;;;;;;;;;;4970693;28;20707;-58
2023/03/27 14:45:40;;;;;;;8.07;3.53;;;;;;;;;;4972234;28;20219;-56
2023/03/27 14:48:24;;;;;;;5.75;3.20;;;;;;;;;;4954728;28;20760;-57
2023/03/27 14:50:54;;;;;;;8.82;3.80;;;;;;;;;;4953853;28;20218;-55
2023/03/27 14:53:28;;;;;;;9.20;3.50;;;;;;;;;;4938856;28;20313;-54
2023/03/27 14:56:44;;;;;;;6.68;3.38;;;;;;;;;;4956939;28;20653;-55
2023/03/27 14:59:40;;;;;;;8.00;4.22;;;;;;;;;;4968790;28;20215;-58
2023/03/27 15:02:21;;;;;;;9.52;4.03;;;;;;;;;;4954885;28;20234;-59
2023/03/27 15:05:00;;;;;;;11.70;4.45;;;;;;;;;;4954745;28;20222;-59
2023/03/27 15:07:33;;;;;;;8.93;3.60;;;;;;;;;;4940672;28;20229;-58
2023/03/27 15:10:41;;;;;;;10.57;4.25;;;;;;;;;;4972278;28;20227;-58
2023/03/27 15:13:41;;;;;;;8.75;4.38;;;;;;;;;;4953462;28;20269;-58
2023/03/27 15:16:20;;;;;;;10.60;4.30;;;;;;;;;;4940324;28;20230;-58
2023/03/27 15:19:04;;;;;;;6.47;3.80;;;;;;;;;;4939246;28;20246;-58
2023/03/27 15:21:45;;;;;;;7.20;3.90;;;;;;;;;;4969607;28;20934;-58
2023/03/27 15:24:18;;;;;;;9.35;3.80;;;;;;;;;;4950909;28;20577;-57
2023/03/27 15:26:47;;;;;;;6.63;3.55;;;;;;;;;;4968514;28;20263;-58
2023/03/27 15:29:31;;;;;;;7.15;4.22;;;;;;;;;;4970702;28;20218;-57
2023/03/27 15:32:00;;;;;;;7.93;3.93;;;;;;;;;;4968727;28;20229;-58
2023/03/27 15:34:35;;;;;;;10.70;4.80;;;;;;;;;;4970439;28;20707;-58